Time;durP1;ratioP1;P1;durP2;ratioP2;P2;SDS_P1;SDS_P2;PMS_P1;PMS_P2;Temp;Humidity;BMP_temperature;BMP_pressure;BME280_temperature;BME280_humidity;BME280_pressure;Samples;Min_cycle;Max_cycle;Signal;HPM_P1;HPM_P2
2022/01/08 00:01:59;;;;;;;38.55;14.40;;;;;;;;;;8463870;28;20532;-75
2022/01/08 00:06:01;;;;;;;42.53;14.68;;;;;;;;;;8463440;28;20132;-76
2022/01/08 00:10:04;;;;;;;49.03;16.27;;;;;;;;;;8463539;28;20128;-75
2022/01/08 00:14:10;;;;;;;33.90;13.85;;;;;;;;;;8463446;28;20102;-76
2022/01/08 00:18:12;;;;;;;45.05;17.30;;;;;;;;;;8463421;28;20100;-75
2022/01/08 00:22:15;;;;;;;34.33;13.00;;;;;;;;;;8463294;28;20479;-73
2022/01/08 00:26:18;;;;;;;38.28;14.10;;;;;;;;;;8462888;28;20051;-75
2022/01/08 00:30:22;;;;;;;36.45;14.57;;;;;;;;;;8462782;28;20051;-76
2022/01/08 00:34:24;;;;;;;35.40;15.65;;;;;;;;;;8468849;28;20097;-76
2022/01/08 00:38:27;;;;;;;48.78;18.20;;;;;;;;;;8468686;28;20043;-75
2022/01/08 00:42:29;;;;;;;45.40;15.88;;;;;;;;;;8468647;28;20047;-75
2022/01/08 00:46:34;;;;;;;40.42;16.17;;;;;;;;;;8468953;28;20429;-74
2022/01/08 00:50:37;;;;;;;36.67;14.48;;;;;;;;;;8468360;28;20093;-75
2022/01/08 00:54:39;;;;;;;38.72;12.95;;;;;;;;;;8468803;28;20062;-75
2022/01/08 00:58:42;;;;;;;32.25;13.65;;;;;;;;;;8467959;28;20056;-75
2022/01/08 01:02:46;;;;;;;41.00;13.48;;;;;;;;;;8468438;28;20044;-76
2022/01/08 01:06:49;;;;;;;38.35;13.55;;;;;;;;;;8468343;28;20475;-74
2022/01/08 01:10:52;;;;;;;44.80;14.82;;;;;;;;;;8467664;28;20093;-74
2022/01/08 01:14:54;;;;;;;34.50;12.55;;;;;;;;;;8468149;28;20453;-75
2022/01/08 01:19:00;;;;;;;36.65;12.57;;;;;;;;;;8467519;28;20035;-75
2022/01/08 01:23:09;;;;;;;29.77;10.43;;;;;;;;;;8467926;28;20437;-74
2022/01/08 01:27:39;;;;;;;29.08;10.75;;;;;;;;;;8467346;28;20046;-72
2022/01/08 01:49:00;;;;;;;39.00;12.50;;;;;;;;;;8466930;28;20388;-74
2022/01/08 01:53:04;;;;;;;36.22;14.20;;;;;;;;;;8466626;27;20050;-76
2022/01/08 01:57:09;;;;;;;40.88;15.13;;;;;;;;;;8466233;28;20044;-74
2022/01/08 02:01:12;;;;;;;32.92;12.85;;;;;;;;;;8466259;28;20048;-74
2022/01/08 02:05:14;;;;;;;28.98;12.73;;;;;;;;;;8466481;28;20051;-75
2022/01/08 02:09:18;;;;;;;41.00;12.98;;;;;;;;;;8465747;28;20044;-76
2022/01/08 02:13:24;;;;;;;35.72;12.73;;;;;;;;;;8466227;27;20501;-76
2022/01/08 02:17:27;;;;;;;29.88;11.80;;;;;;;;;;8465559;28;20058;-74
2022/01/08 02:21:31;;;;;;;37.25;12.68;;;;;;;;;;8465988;28;20408;-75
2022/01/08 02:25:34;;;;;;;38.13;15.00;;;;;;;;;;8465370;28;20039;-74
2022/01/08 02:29:36;;;;;;;33.78;12.48;;;;;;;;;;8465628;28;20051;-74
2022/01/08 02:33:40;;;;;;;29.17;11.80;;;;;;;;;;8465620;28;20132;-74
2022/01/08 02:37:44;;;;;;;35.38;11.98;;;;;;;;;;8465051;28;20040;-74
2022/01/08 02:41:47;;;;;;;40.25;14.35;;;;;;;;;;8465358;28;20384;-74
2022/01/08 02:45:50;;;;;;;27.58;9.90;;;;;;;;;;8465731;28;20506;-75
2022/01/08 02:49:53;;;;;;;32.08;10.88;;;;;;;;;;8464662;28;20046;-74
2022/01/08 02:54:06;;;;;;;21.00;10.93;;;;;;;;;;8464344;28;20067;-75
2022/01/08 02:58:11;;;;;;;31.70;12.88;;;;;;;;;;8464451;28;20059;-75
2022/01/08 03:02:16;;;;;;;31.50;11.15;;;;;;;;;;8465268;28;20479;-76
2022/01/08 03:06:20;;;;;;;31.05;11.20;;;;;;;;;;8464687;28;20471;-73
2022/01/08 03:10:32;;;;;;;20.13;9.05;;;;;;;;;;8464155;28;20043;-74
2022/01/08 03:14:38;;;;;;;29.17;12.20;;;;;;;;;;8464342;28;20039;-77
2022/01/08 03:18:43;;;;;;;34.50;14.52;;;;;;;;;;8464028;28;20388;-74
2022/01/08 03:22:48;;;;;;;32.10;12.45;;;;;;;;;;8464427;28;20051;-74
2022/01/08 03:26:52;;;;;;;28.73;11.10;;;;;;;;;;8464837;28;20168;-74
2022/01/08 03:30:55;;;;;;;33.25;11.50;;;;;;;;;;8463824;28;20130;-77
2022/01/08 03:34:57;;;;;;;34.38;11.85;;;;;;;;;;8464683;28;20523;-76
2022/01/08 03:39:00;;;;;;;30.05;11.80;;;;;;;;;;8464145;28;20452;-75
2022/01/08 03:43:04;;;;;;;33.83;13.25;;;;;;;;;;8463733;28;20043;-76
2022/01/08 03:51:23;;;;;;;29.00;12.45;;;;;;;;;;8463998;28;20119;-75
2022/01/08 03:55:25;;;;;;;21.48;10.40;;;;;;;;;;8463188;28;20051;-75
2022/01/08 03:59:29;;;;;;;40.17;13.95;;;;;;;;;;8463838;28;20043;-75
2022/01/08 04:03:32;;;;;;;31.05;13.65;;;;;;;;;;8463815;28;20054;-75
2022/01/08 04:07:34;;;;;;;26.13;10.90;;;;;;;;;;8468801;28;20048;-75
2022/01/08 04:11:37;;;;;;;21.00;10.75;;;;;;;;;;8470022;28;20399;-76
2022/01/08 04:15:43;;;;;;;36.00;12.98;;;;;;;;;;8470016;28;20091;-76
2022/01/08 04:19:46;;;;;;;36.00;12.85;;;;;;;;;;8469962;28;20047;-74
2022/01/08 04:23:48;;;;;;;39.03;12.65;;;;;;;;;;8469764;28;20475;-76
2022/01/08 04:27:51;;;;;;;23.90;10.77;;;;;;;;;;8469159;28;20035;-76
2022/01/08 04:31:55;;;;;;;31.98;15.20;;;;;;;;;;8469463;28;20073;-75
2022/01/08 04:35:58;;;;;;;25.55;10.50;;;;;;;;;;8469035;28;20134;-75
2022/01/08 04:40:00;;;;;;;25.20;10.48;;;;;;;;;;8469323;28;20472;-76
2022/01/08 04:44:07;;;;;;;21.75;9.52;;;;;;;;;;8469315;28;20067;-77
2022/01/08 04:48:11;;;;;;;33.92;13.40;;;;;;;;;;8439142;27;20126;-74
2022/01/08 04:52:14;;;;;;;20.77;10.65;;;;;;;;;;8418023;28;20146;-78
2022/01/08 04:56:16;;;;;;;26.05;10.38;;;;;;;;;;8432695;28;20048;-78
2022/01/08 05:00:20;;;;;;;33.42;11.18;;;;;;;;;;8433452;28;20044;-75
2022/01/08 05:04:26;;;;;;;28.48;10.43;;;;;;;;;;8434018;28;20471;-74
2022/01/08 05:08:29;;;;;;;43.10;14.00;;;;;;;;;;8426564;28;20044;-75
2022/01/08 05:12:31;;;;;;;25.10;11.15;;;;;;;;;;8412353;28;20136;-76
2022/01/08 05:16:34;;;;;;;13.30;7.03;;;;;;;;;;8410080;28;20119;-74
2022/01/08 05:20:39;;;;;;;36.25;13.70;;;;;;;;;;8421432;28;20500;-82
2022/01/08 05:24:41;;;;;;;17.25;8.52;;;;;;;;;;8400173;28;20044;-77
2022/01/08 05:28:45;;;;;;;28.75;11.30;;;;;;;;;;8421875;28;20415;-75
2022/01/08 05:32:48;;;;;;;66.38;23.73;;;;;;;;;;8433681;28;20123;-75
2022/01/08 05:36:52;;;;;;;38.90;14.93;;;;;;;;;;8433640;28;20044;-75
2022/01/08 05:40:55;;;;;;;25.73;12.32;;;;;;;;;;8433550;28;20047;-75
2022/01/08 05:44:57;;;;;;;33.97;14.85;;;;;;;;;;8427078;28;20503;-77
2022/01/08 05:49:02;;;;;;;19.65;8.07;;;;;;;;;;8399721;28;20441;-76
2022/01/08 05:53:06;;;;;;;31.83;13.02;;;;;;;;;;8399148;28;20093;-77
2022/01/08 05:57:08;;;;;;;23.80;10.85;;;;;;;;;;8399172;28;20068;-76
2022/01/08 06:01:14;;;;;;;25.67;10.45;;;;;;;;;;8398936;28;20083;-75
2022/01/08 06:05:19;;;;;;;27.15;10.57;;;;;;;;;;8398797;28;20059;-76
2022/01/08 06:09:28;;;;;;;18.35;7.93;;;;;;;;;;8398602;28;20476;-74
2022/01/08 06:13:37;;;;;;;28.38;11.35;;;;;;;;;;8401081;28;20053;-75
2022/01/08 06:17:46;;;;;;;19.40;9.07;;;;;;;;;;8416156;28;20047;-76
2022/01/08 06:21:54;;;;;;;27.48;10.45;;;;;;;;;;8429571;28;20044;-77
2022/01/08 06:26:08;;;;;;;26.85;9.38;;;;;;;;;;8431271;28;20090;-74
2022/01/08 06:30:11;;;;;;;14.68;8.43;;;;;;;;;;8432324;28;20048;-73
2022/01/08 06:34:14;;;;;;;23.90;9.63;;;;;;;;;;8431472;28;20044;-77
2022/01/08 06:38:17;;;;;;;30.05;12.30;;;;;;;;;;8431901;28;20051;-74
2022/01/08 06:42:21;;;;;;;27.83;11.35;;;;;;;;;;8431038;28;20119;-76
2022/01/08 06:46:24;;;;;;;28.45;9.23;;;;;;;;;;8431269;28;20050;-73
2022/01/08 06:50:28;;;;;;;27.67;10.68;;;;;;;;;;8430530;28;20056;-76
2022/01/08 06:54:30;;;;;;;24.63;9.75;;;;;;;;;;8397317;28;20045;-76
2022/01/08 06:58:35;;;;;;;28.40;11.25;;;;;;;;;;8397145;28;20057;-75
2022/01/08 07:02:39;;;;;;;23.20;10.45;;;;;;;;;;8397678;28;20054;-75
2022/01/08 07:06:41;;;;;;;26.83;10.88;;;;;;;;;;8401881;28;20426;-74
2022/01/08 07:10:44;;;;;;;23.20;10.18;;;;;;;;;;8430924;28;20082;-75
2022/01/08 07:14:48;;;;;;;32.08;8.98;;;;;;;;;;8430484;28;20407;-77
2022/01/08 07:18:51;;;;;;;21.63;10.05;;;;;;;;;;8430797;28;20040;-74
2022/01/08 07:22:53;;;;;;;29.73;13.45;;;;;;;;;;8412212;28;20048;-77
2022/01/08 07:26:59;;;;;;;50.08;19.65;;;;;;;;;;8408258;28;20506;-75
2022/01/08 07:31:04;;;;;;;73.72;21.95;;;;;;;;;;8429504;28;20056;-75
2022/01/08 07:35:12;;;;;;;105.38;27.27;;;;;;;;;;8427318;28;20055;-76
2022/01/08 07:39:15;;;;;;;63.80;26.30;;;;;;;;;;8406957;28;20040;-75
2022/01/08 07:43:19;;;;;;;33.20;12.38;;;;;;;;;;8402849;28;20050;-75
2022/01/08 07:47:23;;;;;;;43.33;14.52;;;;;;;;;;8411320;28;20131;-77
2022/01/08 07:51:26;;;;;;;26.45;9.82;;;;;;;;;;8399564;28;20060;-76
2022/01/08 07:55:29;;;;;;;42.53;16.65;;;;;;;;;;8402038;28;20080;-76
2022/01/08 07:59:31;;;;;;;22.38;11.23;;;;;;;;;;8402067;28;20055;-76
2022/01/08 08:03:36;;;;;;;28.20;12.60;;;;;;;;;;8401939;28;20041;-76
2022/01/08 08:07:40;;;;;;;20.05;9.63;;;;;;;;;;8402752;28;20048;-76
2022/01/08 08:11:44;;;;;;;22.27;9.35;;;;;;;;;;8402187;28;20086;-75
2022/01/08 08:15:47;;;;;;;30.83;11.90;;;;;;;;;;8415231;28;20072;-76
2022/01/08 08:19:51;;;;;;;31.73;13.65;;;;;;;;;;8433194;28;20051;-75
2022/01/08 08:23:55;;;;;;;29.58;12.60;;;;;;;;;;8413765;28;20067;-76
2022/01/08 08:27:57;;;;;;;28.88;10.18;;;;;;;;;;8400538;28;20049;-75
2022/01/08 08:32:00;;;;;;;30.55;10.93;;;;;;;;;;8399851;28;20052;-76
2022/01/08 08:36:04;;;;;;;30.98;12.40;;;;;;;;;;8401302;28;20052;-76
2022/01/08 08:40:10;;;;;;;34.75;12.70;;;;;;;;;;8401564;28;20195;-75
2022/01/08 08:44:12;;;;;;;34.67;15.95;;;;;;;;;;8401516;28;20040;-76
2022/01/08 08:48:16;;;;;;;39.85;15.02;;;;;;;;;;8401650;28;20055;-76
2022/01/08 08:52:23;;;;;;;33.08;13.25;;;;;;;;;;8400703;28;20063;-76
2022/01/08 08:56:27;;;;;;;20.48;9.13;;;;;;;;;;8400916;28;20245;-76
2022/01/08 09:00:31;;;;;;;27.98;11.88;;;;;;;;;;8401404;28;20044;-76
2022/01/08 09:04:36;;;;;;;115.95;37.42;;;;;;;;;;8400667;28;20078;-76
2022/01/08 09:08:40;;;;;;;34.42;13.18;;;;;;;;;;8400704;28;20500;-75
2022/01/08 09:12:44;;;;;;;29.83;10.65;;;;;;;;;;8400480;28;20055;-77
2022/01/08 09:16:50;;;;;;;28.50;12.95;;;;;;;;;;8400809;28;20049;-76
2022/01/08 09:20:53;;;;;;;43.13;12.02;;;;;;;;;;8400368;28;20048;-76
2022/01/08 09:24:57;;;;;;;36.38;12.75;;;;;;;;;;8400237;28;20074;-76
2022/01/08 09:29:00;;;;;;;52.20;22.42;;;;;;;;;;8400289;28;20530;-81
2022/01/08 09:33:03;;;;;;;24.88;11.38;;;;;;;;;;8399822;28;20051;-77
2022/01/08 09:37:07;;;;;;;29.27;12.80;;;;;;;;;;8399826;28;20051;-76
2022/01/08 09:41:13;;;;;;;38.13;19.02;;;;;;;;;;8399679;28;20048;-77
2022/01/08 09:45:17;;;;;;;30.05;11.55;;;;;;;;;;8399557;28;20049;-77
2022/01/08 09:49:22;;;;;;;33.85;12.52;;;;;;;;;;8403812;28;20047;-78
2022/01/08 09:53:28;;;;;;;72.97;22.63;;;;;;;;;;8436749;28;20052;-77
2022/01/08 09:57:33;;;;;;;47.67;18.48;;;;;;;;;;8418355;28;20585;-77
2022/01/08 10:01:38;;;;;;;44.35;16.77;;;;;;;;;;8412609;28;20041;-76
2022/01/08 10:05:47;;;;;;;81.82;21.92;;;;;;;;;;8415619;28;20044;-77
2022/01/08 10:10:13;;;;;;;33.58;14.88;;;;;;;;;;8404473;28;20048;-77
2022/01/08 10:14:29;;;;;;;41.42;19.83;;;;;;;;;;8398253;28;20044;-74
2022/01/08 10:18:36;;;;;;;74.13;25.30;;;;;;;;;;8418326;28;20044;-76
2022/01/08 10:22:39;;;;;;;46.45;14.63;;;;;;;;;;8431637;28;20068;-76
2022/01/08 10:26:49;;;;;;;49.45;13.07;;;;;;;;;;8431457;28;20048;-77
2022/01/08 10:31:06;;;;;;;53.30;15.02;;;;;;;;;;8431773;28;20069;-76
2022/01/08 10:35:12;;;;;;;35.00;14.05;;;;;;;;;;8420958;28;20051;-77
2022/01/08 10:39:41;;;;;;;58.05;22.38;;;;;;;;;;8398967;28;20047;-75
2022/01/08 10:44:48;;;;;;;40.03;16.70;;;;;;;;;;8398276;28;20280;-77
2022/01/08 10:49:26;;;;;;;30.70;10.77;;;;;;;;;;8396170;28;20113;-77
2022/01/08 10:53:58;;;;;;;29.38;12.75;;;;;;;;;;8396853;28;20041;-76
2022/01/08 10:58:42;;;;;;;43.97;14.85;;;;;;;;;;8396429;28;20053;-76
2022/01/08 11:02:49;;;;;;;75.10;24.83;;;;;;;;;;8409237;28;20139;-75
2022/01/08 11:06:57;;;;;;;37.47;13.63;;;;;;;;;;8429954;28;20047;-77
2022/01/08 11:11:01;;;;;;;38.60;16.10;;;;;;;;;;8430604;28;20044;-76
2022/01/08 11:19:24;;;;;;;42.20;15.60;;;;;;;;;;8428548;28;20048;-76
2022/01/08 11:23:34;;;;;;;44.67;17.33;;;;;;;;;;8430698;28;20476;-76
2022/01/08 11:27:46;;;;;;;57.92;19.23;;;;;;;;;;8430437;28;20075;-77
2022/01/08 11:31:55;;;;;;;53.17;18.77;;;;;;;;;;8430705;28;20048;-77
2022/01/08 11:36:00;;;;;;;30.58;14.50;;;;;;;;;;8431004;28;20294;-77
2022/01/08 11:40:08;;;;;;;30.95;14.38;;;;;;;;;;8430205;28;20450;-76
2022/01/08 11:44:11;;;;;;;24.10;11.77;;;;;;;;;;8430154;28;20040;-78
2022/01/08 11:48:18;;;;;;;67.43;20.05;;;;;;;;;;8430035;28;20047;-77
2022/01/08 11:52:22;;;;;;;80.30;26.92;;;;;;;;;;8430041;28;20130;-76
2022/01/08 11:56:29;;;;;;;44.22;16.90;;;;;;;;;;8429858;28;20076;-76
2022/01/08 12:00:47;;;;;;;53.30;17.70;;;;;;;;;;8429865;28;20124;-75
2022/01/08 12:04:54;;;;;;;40.53;15.75;;;;;;;;;;8430309;28;20055;-76
2022/01/08 12:09:07;;;;;;;32.95;13.57;;;;;;;;;;8430157;28;20048;-77
2022/01/08 12:13:13;;;;;;;104.75;38.92;;;;;;;;;;8429623;28;20051;-75
2022/01/08 12:17:18;;;;;;;34.20;15.07;;;;;;;;;;8429763;28;20093;-77
2022/01/08 12:21:32;;;;;;;39.60;17.15;;;;;;;;;;8430162;28;20094;-76
2022/01/08 12:25:41;;;;;;;143.80;37.55;;;;;;;;;;8429724;28;20052;-76
2022/01/08 12:29:46;;;;;;;31.73;12.38;;;;;;;;;;8425321;28;20040;-77
2022/01/08 12:34:37;;;;;;;151.98;34.67;;;;;;;;;;8413188;28;20106;-77
2022/01/08 12:38:41;;;;;;;79.28;23.75;;;;;;;;;;8410949;28;20502;-75
2022/01/08 12:42:46;;;;;;;47.10;18.50;;;;;;;;;;8401138;28;20044;-76
2022/01/08 12:46:52;;;;;;;42.05;19.40;;;;;;;;;;8410491;28;20075;-76
2022/01/08 12:50:56;;;;;;;45.35;24.15;;;;;;;;;;8416155;28;20044;-77
2022/01/08 12:55:14;;;;;;;41.95;20.67;;;;;;;;;;8425603;28;20045;-75
2022/01/08 12:59:20;;;;;;;23.70;10.40;;;;;;;;;;8426048;28;20070;-77
2022/01/08 13:03:30;;;;;;;29.35;13.30;;;;;;;;;;8430944;28;20036;-76
2022/01/08 13:07:33;;;;;;;25.15;11.85;;;;;;;;;;8416310;28;20486;-76
2022/01/08 13:11:42;;;;;;;86.32;27.23;;;;;;;;;;8417568;28;20399;-76
2022/01/08 13:15:46;;;;;;;54.90;20.40;;;;;;;;;;8420426;28;20105;-77
2022/01/08 13:20:08;;;;;;;53.70;20.00;;;;;;;;;;8404189;28;20044;-75
2022/01/08 13:24:19;;;;;;;33.50;16.17;;;;;;;;;;8403153;28;20047;-76
2022/01/08 13:28:27;;;;;;;53.25;23.85;;;;;;;;;;8418970;28;20045;-76
2022/01/08 13:32:31;;;;;;;56.35;26.65;;;;;;;;;;8430133;28;20047;-76
2022/01/08 13:36:36;;;;;;;44.30;17.33;;;;;;;;;;8426599;28;20040;-76
2022/01/08 13:40:41;;;;;;;47.50;21.33;;;;;;;;;;8409537;28;20132;-76
2022/01/08 13:44:48;;;;;;;40.00;17.33;;;;;;;;;;8399445;28;20110;-76
2022/01/08 13:48:52;;;;;;;56.35;24.98;;;;;;;;;;8399117;28;20124;-75
2022/01/08 13:53:06;;;;;;;37.03;15.00;;;;;;;;;;8399249;28;20557;-76
2022/01/08 13:57:19;;;;;;;32.05;16.23;;;;;;;;;;8398210;28;20472;-76
2022/01/08 14:01:49;;;;;;;59.17;21.35;;;;;;;;;;8398524;28;20488;-79
2022/01/08 14:06:08;;;;;;;109.45;25.55;;;;;;;;;;8398635;28;20047;-76
2022/01/08 14:10:16;;;;;;;24.95;12.82;;;;;;;;;;8398304;28;20048;-77
2022/01/08 14:14:20;;;;;;;24.05;11.75;;;;;;;;;;8426107;28;20047;-77
2022/01/08 14:18:34;;;;;;;54.58;18.80;;;;;;;;;;8431474;28;20044;-76
2022/01/08 14:22:44;;;;;;;34.00;14.10;;;;;;;;;;8426055;28;20109;-77
2022/01/08 14:27:16;;;;;;;47.77;19.37;;;;;;;;;;8421428;28;20043;-76
2022/01/08 14:31:24;;;;;;;27.75;12.30;;;;;;;;;;8418033;28;20043;-77
2022/01/08 14:35:43;;;;;;;68.97;23.83;;;;;;;;;;8427411;28;20040;-76
2022/01/08 14:40:02;;;;;;;49.58;19.52;;;;;;;;;;8426802;28;20106;-78
2022/01/08 14:44:17;;;;;;;115.82;40.97;;;;;;;;;;8416449;28;20046;-76
2022/01/08 14:48:37;;;;;;;56.42;25.77;;;;;;;;;;8422277;28;20491;-78
2022/01/08 14:52:46;;;;;;;47.33;22.80;;;;;;;;;;8418293;28;20438;-77
2022/01/08 14:56:58;;;;;;;43.05;20.30;;;;;;;;;;8419323;28;20052;-77
2022/01/08 15:01:29;;;;;;;35.53;18.63;;;;;;;;;;8418521;28;20529;-77
2022/01/08 15:06:06;;;;;;;54.60;24.65;;;;;;;;;;8422926;28;20491;-76
2022/01/08 15:10:29;;;;;;;43.78;19.13;;;;;;;;;;8420033;28;20446;-76
2022/01/08 15:15:04;;;;;;;29.45;15.40;;;;;;;;;;8421052;28;20048;-77
2022/01/08 15:19:51;;;;;;;51.75;29.60;;;;;;;;;;8424840;28;20051;-78
2022/01/08 15:24:05;;;;;;;33.00;17.48;;;;;;;;;;8411657;28;20143;-75
2022/01/08 15:28:22;;;;;;;35.78;20.90;;;;;;;;;;8417362;28;20051;-77
2022/01/08 15:32:40;;;;;;;50.70;27.20;;;;;;;;;;8408110;28;20048;-79
2022/01/08 15:36:55;;;;;;;39.47;17.88;;;;;;;;;;8397105;28;20048;-76
2022/01/08 15:41:32;;;;;;;31.23;14.85;;;;;;;;;;8394225;28;20565;-76
2022/01/08 15:45:59;;;;;;;33.75;16.60;;;;;;;;;;8408422;28;20052;-76
2022/01/08 15:50:29;;;;;;;38.17;14.90;;;;;;;;;;8395288;28;20068;-76
2022/01/08 15:54:56;;;;;;;29.40;14.60;;;;;;;;;;8411167;28;20055;-75
2022/01/08 15:59:02;;;;;;;38.50;15.82;;;;;;;;;;8419842;28;20053;-77
2022/01/08 16:03:10;;;;;;;37.75;15.18;;;;;;;;;;8415108;28;20198;-76
2022/01/08 16:07:13;;;;;;;44.28;19.67;;;;;;;;;;8405583;28;20056;-75
2022/01/08 16:11:27;;;;;;;50.20;23.58;;;;;;;;;;8434777;28;20051;-75
2022/01/08 16:15:36;;;;;;;56.40;27.92;;;;;;;;;;8447657;28;20051;-78
2022/01/08 16:19:41;;;;;;;37.97;18.88;;;;;;;;;;8441905;27;20640;-84
2022/01/08 16:23:48;;;;;;;61.53;31.77;;;;;;;;;;8446092;28;20411;-77
2022/01/08 16:27:55;;;;;;;44.70;21.23;;;;;;;;;;8435601;28;20046;-77
2022/01/08 16:32:00;;;;;;;36.40;19.10;;;;;;;;;;8423373;28;20059;-77
2022/01/08 16:36:07;;;;;;;69.88;21.55;;;;;;;;;;8439836;28;20040;-77
2022/01/08 16:40:11;;;;;;;71.10;29.88;;;;;;;;;;8445728;28;20035;-86
2022/01/08 16:44:18;;;;;;;57.70;23.67;;;;;;;;;;8446106;28;20064;-77
2022/01/08 16:48:22;;;;;;;44.38;19.65;;;;;;;;;;8436424;28;20067;-75
2022/01/08 16:52:25;;;;;;;196.90;68.10;;;;;;;;;;8403479;28;20472;-84
2022/01/08 16:56:28;;;;;;;141.20;46.25;;;;;;;;;;8413196;28;20491;-76
2022/01/08 17:00:33;;;;;;;141.70;48.72;;;;;;;;;;8423676;28;20585;-78
2022/01/08 17:04:36;;;;;;;103.88;37.35;;;;;;;;;;8424406;28;20480;-77
2022/01/08 17:08:40;;;;;;;55.05;26.02;;;;;;;;;;8444679;28;20123;-79
2022/01/08 17:12:43;;;;;;;91.05;44.17;;;;;;;;;;8434575;28;20044;-76
2022/01/08 17:16:49;;;;;;;58.83;31.48;;;;;;;;;;8437729;28;20052;-87
2022/01/08 17:20:53;;;;;;;47.55;23.63;;;;;;;;;;8435726;28;20127;-75
2022/01/08 17:24:56;;;;;;;47.13;24.15;;;;;;;;;;8434945;28;20129;-77
2022/01/08 17:28:59;;;;;;;45.70;21.20;;;;;;;;;;8434601;28;20136;-75
2022/01/08 17:33:04;;;;;;;50.42;19.80;;;;;;;;;;8434317;28;20139;-75
2022/01/08 17:37:09;;;;;;;57.15;27.17;;;;;;;;;;8433916;28;20048;-74
2022/01/08 17:41:12;;;;;;;41.78;17.30;;;;;;;;;;8433378;28;20389;-75
2022/01/08 17:45:16;;;;;;;63.88;29.00;;;;;;;;;;8445533;28;20134;-75
2022/01/08 17:49:21;;;;;;;49.92;22.55;;;;;;;;;;8448009;28;20503;-81
2022/01/08 17:53:24;;;;;;;56.58;27.65;;;;;;;;;;8409259;28;20098;-78
2022/01/08 17:57:27;;;;;;;47.78;22.20;;;;;;;;;;8398948;28;20454;-73
2022/01/08 18:01:48;;;;;;;46.65;17.65;;;;;;;;;;8407259;28;20472;-78
2022/01/08 18:05:57;;;;;;;46.88;19.38;;;;;;;;;;8400044;28;20494;-75
2022/01/08 18:10:05;;;;;;;60.03;23.30;;;;;;;;;;8407726;28;20191;-78
2022/01/08 18:14:09;;;;;;;75.05;27.55;;;;;;;;;;8398648;28;20048;-76
2022/01/08 18:18:12;;;;;;;121.10;38.75;;;;;;;;;;8398441;28;20587;-75
2022/01/08 18:22:16;;;;;;;136.30;42.83;;;;;;;;;;8398034;28;20082;-76
2022/01/08 18:26:20;;;;;;;60.38;26.55;;;;;;;;;;8397289;28;20047;-74
2022/01/08 18:30:25;;;;;;;63.13;27.20;;;;;;;;;;8397050;28;20114;-76
2022/01/08 18:34:28;;;;;;;62.33;26.30;;;;;;;;;;8399185;28;20135;-75
2022/01/08 18:38:33;;;;;;;57.70;25.23;;;;;;;;;;8397314;28;20488;-74
2022/01/08 18:42:38;;;;;;;69.10;28.52;;;;;;;;;;8399139;28;20043;-76
2022/01/08 18:46:42;;;;;;;72.47;27.20;;;;;;;;;;8399957;28;20036;-75
2022/01/08 18:50:47;;;;;;;81.75;31.92;;;;;;;;;;8396233;28;20068;-76
2022/01/08 18:54:53;;;;;;;74.30;29.77;;;;;;;;;;8396402;28;20049;-75
2022/01/08 18:59:00;;;;;;;60.42;24.05;;;;;;;;;;8396624;28;20040;-76
2022/01/08 19:03:03;;;;;;;63.50;26.67;;;;;;;;;;8398524;28;20434;-74
2022/01/08 19:07:07;;;;;;;60.42;26.60;;;;;;;;;;8410323;28;20044;-75
2022/01/08 19:11:12;;;;;;;60.40;26.42;;;;;;;;;;8430609;28;20046;-73
2022/01/08 19:15:16;;;;;;;71.85;29.85;;;;;;;;;;8430263;28;20044;-78
2022/01/08 19:19:19;;;;;;;95.57;37.28;;;;;;;;;;8401376;28;20048;-75
2022/01/08 19:23:23;;;;;;;53.35;22.20;;;;;;;;;;8396452;28;20048;-76
2022/01/08 19:27:29;;;;;;;58.83;24.90;;;;;;;;;;8398146;28;20040;-76
2022/01/08 19:31:34;;;;;;;67.15;28.33;;;;;;;;;;8396272;28;20056;-75
2022/01/08 19:35:39;;;;;;;66.53;28.27;;;;;;;;;;8396491;28;20048;-74
2022/01/08 19:39:43;;;;;;;77.47;36.33;;;;;;;;;;8403471;28;20488;-74
2022/01/08 19:43:48;;;;;;;62.90;29.17;;;;;;;;;;8408573;28;20048;-79
2022/01/08 19:47:53;;;;;;;71.95;30.17;;;;;;;;;;8418528;28;20143;-76
2022/01/08 19:51:59;;;;;;;70.82;29.45;;;;;;;;;;8434266;28;20040;-75
2022/01/08 19:56:05;;;;;;;92.45;40.38;;;;;;;;;;8408372;28;20455;-75
2022/01/08 20:00:14;;;;;;;67.85;28.35;;;;;;;;;;8428003;28;20044;-78
2022/01/08 20:04:18;;;;;;;61.13;30.90;;;;;;;;;;8402503;28;20049;-76
2022/01/08 20:08:25;;;;;;;101.70;43.95;;;;;;;;;;8402593;28;20136;-75
2022/01/08 20:12:51;;;;;;;90.68;43.80;;;;;;;;;;8404863;28;20494;-76
2022/01/08 20:17:02;;;;;;;115.25;38.53;;;;;;;;;;8406807;28;20078;-74
2022/01/08 20:21:08;;;;;;;104.03;45.60;;;;;;;;;;8402679;28;20144;-76
2022/01/08 20:25:15;;;;;;;142.82;39.53;;;;;;;;;;8401901;28;20079;-77
2022/01/08 20:29:21;;;;;;;182.98;50.53;;;;;;;;;;8402358;28;20043;-77
2022/01/08 20:33:33;;;;;;;80.65;31.40;;;;;;;;;;8423544;28;20067;-76
2022/01/08 20:37:38;;;;;;;101.40;32.67;;;;;;;;;;8434796;28;20051;-75
2022/01/08 20:41:45;;;;;;;73.20;26.38;;;;;;;;;;8445242;28;20036;-77
2022/01/08 20:45:51;;;;;;;79.20;30.27;;;;;;;;;;8437341;28;20483;-78
2022/01/08 20:49:59;;;;;;;59.00;22.83;;;;;;;;;;8427337;28;20593;-75
2022/01/08 20:54:05;;;;;;;52.22;22.58;;;;;;;;;;8445996;28;20063;-75
2022/01/08 20:58:10;;;;;;;55.45;21.17;;;;;;;;;;8446597;28;20525;-76
2022/01/08 21:02:18;;;;;;;82.78;32.90;;;;;;;;;;8459028;28;20411;-76
2022/01/08 21:06:26;;;;;;;53.58;20.42;;;;;;;;;;8466177;28;20040;-75
2022/01/08 21:10:31;;;;;;;50.63;21.27;;;;;;;;;;8466679;28;20479;-74
2022/01/08 21:14:37;;;;;;;60.15;24.48;;;;;;;;;;8468287;28;20348;-76
2022/01/08 21:18:42;;;;;;;64.60;24.00;;;;;;;;;;8468554;28;20483;-76
2022/01/08 21:22:54;;;;;;;55.53;20.38;;;;;;;;;;8468382;28;20059;-75
2022/01/08 21:26:57;;;;;;;52.17;20.50;;;;;;;;;;8468284;28;20570;-75
2022/01/08 21:31:05;;;;;;;75.15;28.55;;;;;;;;;;8467391;28;20063;-74
2022/01/08 21:35:11;;;;;;;58.25;21.25;;;;;;;;;;8467234;28;20056;-75
2022/01/08 21:39:22;;;;;;;54.45;21.02;;;;;;;;;;8467006;28;20046;-74
2022/01/08 21:43:25;;;;;;;190.30;56.63;;;;;;;;;;8467023;28;20126;-75
2022/01/08 21:47:31;;;;;;;97.20;35.85;;;;;;;;;;8466785;28;20050;-75
2022/01/08 21:51:37;;;;;;;114.05;36.00;;;;;;;;;;8466669;28;20044;-76
2022/01/08 21:55:46;;;;;;;88.18;32.17;;;;;;;;;;8466679;28;20097;-80
2022/01/08 21:59:52;;;;;;;62.30;24.23;;;;;;;;;;8466094;28;20134;-76
2022/01/08 22:03:57;;;;;;;64.18;24.00;;;;;;;;;;8466949;28;20055;-76
2022/01/08 22:08:01;;;;;;;93.03;32.30;;;;;;;;;;8466283;28;20052;-75
2022/01/08 22:12:11;;;;;;;77.07;28.92;;;;;;;;;;8466188;28;20043;-76
2022/01/08 22:16:16;;;;;;;82.68;28.80;;;;;;;;;;8466158;28;20052;-76
2022/01/08 22:20:20;;;;;;;77.10;28.55;;;;;;;;;;8465897;28;20457;-75
2022/01/08 22:24:25;;;;;;;79.75;28.55;;;;;;;;;;8465645;28;20437;-75
2022/01/08 22:28:32;;;;;;;109.05;35.35;;;;;;;;;;8466445;28;20047;-75
2022/01/08 22:32:35;;;;;;;66.80;26.77;;;;;;;;;;8465479;28;20130;-77
2022/01/08 22:36:42;;;;;;;62.70;23.38;;;;;;;;;;8465301;28;20047;-75
2022/01/08 22:40:47;;;;;;;372.50;107.25;;;;;;;;;;8465352;28;20055;-77
2022/01/08 22:44:52;;;;;;;324.08;91.07;;;;;;;;;;8466143;28;20131;-73
2022/01/08 22:48:58;;;;;;;363.23;95.07;;;;;;;;;;8465511;28;20062;-76
2022/01/08 22:53:02;;;;;;;390.52;110.88;;;;;;;;;;8465286;28;20071;-74
2022/01/08 22:57:06;;;;;;;252.45;72.82;;;;;;;;;;8464603;28;20067;-74
2022/01/08 23:01:11;;;;;;;65.22;24.90;;;;;;;;;;8465113;28;20406;-74
2022/01/08 23:05:13;;;;;;;94.55;30.50;;;;;;;;;;8464545;28;20142;-75
2022/01/08 23:09:16;;;;;;;240.98;68.00;;;;;;;;;;8464310;28;20044;-76
2022/01/08 23:13:20;;;;;;;64.22;23.33;;;;;;;;;;8463754;28;20043;-76
2022/01/08 23:17:24;;;;;;;42.58;18.45;;;;;;;;;;8464263;28;20096;-74
2022/01/08 23:21:29;;;;;;;56.17;20.80;;;;;;;;;;8464189;28;20052;-76
2022/01/08 23:25:33;;;;;;;51.85;21.05;;;;;;;;;;8464038;28;20052;-75
2022/01/08 23:29:35;;;;;;;57.55;22.13;;;;;;;;;;8463677;28;20051;-74
2022/01/08 23:33:40;;;;;;;47.35;19.67;;;;;;;;;;8463773;28;20047;-75
2022/01/08 23:37:43;;;;;;;60.15;22.73;;;;;;;;;;8463927;28;20124;-75
2022/01/08 23:41:46;;;;;;;49.33;20.02;;;;;;;;;;8463690;28;20047;-73
2022/01/08 23:45:56;;;;;;;57.72;20.40;;;;;;;;;;8463782;28;20050;-76
2022/01/08 23:50:04;;;;;;;62.95;22.50;;;;;;;;;;8464102;28;20052;-77
2022/01/08 23:54:08;;;;;;;64.90;24.42;;;;;;;;;;8464078;28;20390;-75
2022/01/08 23:58:10;;;;;;;60.22;23.95;;;;;;;;;;8463672;28;20054;-77
